Time;durP1;ratioP1;P1;durP2;ratioP2;P2;SDS_P1;SDS_P2;PMS_P1;PMS_P2;Temp;Humidity;BMP_temperature;BMP_pressure;BME280_temperature;BME280_humidity;BME280_pressure;Samples;Min_cycle;Max_cycle;Signal;HPM_P1;HPM_P2
2024/03/30 00:01:08;;;;;;;39.30;15.13;;;9.80;99.90;;;8.59;81.57;99778.59;5015849;28;20109;-78
2024/03/30 00:03:39;;;;;;;41.92;14.82;;;9.80;99.90;;;8.54;81.95;99780.63;5008560;28;20117;-79
2024/03/30 00:06:05;;;;;;;44.75;15.07;;;9.70;99.90;;;8.52;82.38;99780.72;5001609;28;20395;-78
2024/03/30 00:08:31;;;;;;;61.42;19.02;;;9.70;99.90;;;8.54;82.89;99773.59;5024107;28;20556;-78
2024/03/30 00:11:08;;;;;;;31.23;10.85;;;9.70;99.90;;;8.57;82.69;99777.84;5010609;28;20135;-78
2024/03/30 00:13:34;;;;;;;17.88;6.90;;;9.70;99.90;;;8.58;82.56;99771.66;5016613;28;20037;-78
2024/03/30 00:16:12;;;;;;;14.90;5.55;;;9.70;99.90;;;8.59;82.77;99762.84;5020640;28;20045;-79
2024/03/30 00:18:39;;;;;;;8.15;3.50;;;9.70;99.90;;;8.60;82.82;99751.44;5003026;28;20118;-78
2024/03/30 00:21:05;;;;;;;7.65;3.00;;;9.70;99.90;;;8.61;82.41;99750.50;5005293;28;20030;-78
2024/03/30 00:23:40;;;;;;;7.93;3.22;;;9.70;99.90;;;8.61;82.84;99758.38;5027464;28;20068;-79
2024/03/30 00:26:07;;;;;;;7.18;3.70;;;9.70;99.90;;;8.60;82.44;99767.19;5029974;28;20033;-78
2024/03/30 00:28:33;;;;;;;25.38;20.50;;;9.70;99.90;;;8.61;82.54;99776.75;5024453;28;20036;-78
2024/03/30 00:30:59;;;;;;;6.65;3.15;;;9.70;99.90;;;8.60;82.79;99772.44;5008449;28;20576;-78
2024/03/30 00:33:32;;;;;;;5.82;3.00;;;9.70;99.90;;;8.59;83.10;99776.81;5029476;28;20155;-78
2024/03/30 00:35:58;;;;;;;10.05;7.40;;;9.70;99.90;;;8.59;82.71;99783.84;5023206;28;20041;-78
2024/03/30 00:38:27;;;;;;;8.18;5.00;;;9.70;99.90;;;8.57;83.14;99786.56;5021206;28;20030;-78
2024/03/30 00:40:55;;;;;;;6.47;3.35;;;9.70;99.90;;;8.56;83.00;99791.91;5026834;28;20037;-79
2024/03/30 00:43:23;;;;;;;7.78;2.90;;;9.70;99.90;;;8.54;82.65;99794.59;5027186;28;20554;-79
2024/03/30 00:45:51;;;;;;;5.47;2.83;;;9.70;99.90;;;8.52;82.98;99796.44;5029373;28;20059;-80
2024/03/30 00:48:17;;;;;;;5.65;3.03;;;9.70;99.90;;;8.52;82.99;99798.22;5028389;28;20030;-79
2024/03/30 00:50:43;;;;;;;6.30;3.33;;;9.60;99.90;;;8.51;83.14;99788.66;5029504;28;20032;-79
2024/03/30 00:53:14;;;;;;;10.20;4.78;;;9.70;99.90;;;8.50;83.52;99789.59;5021758;28;20030;-80
2024/03/30 00:55:39;;;;;;;4.78;3.95;;;9.60;99.90;;;8.47;83.14;99797.63;5021875;28;20029;-78
2024/03/30 00:58:07;;;;;;;5.57;3.13;;;9.60;99.90;;;8.46;83.55;99801.19;5028010;28;20117;-78
2024/03/30 01:00:32;;;;;;;4.90;2.58;;;9.60;99.90;;;8.45;83.87;99807.38;5024357;28;20108;-78
2024/03/30 01:02:58;;;;;;;7.47;2.60;;;9.60;99.90;;;8.43;83.60;99801.34;5010410;28;20323;-79
2024/03/30 01:05:24;;;;;;;9.88;4.90;;;9.60;99.90;;;8.39;83.56;99798.84;5023577;28;20104;-78
2024/03/30 01:07:52;;;;;;;15.35;7.80;;;9.50;99.90;;;8.36;83.79;99798.16;5012144;28;20573;-78
2024/03/30 01:10:22;;;;;;;8.38;3.80;;;9.50;99.90;;;8.32;83.72;99815.81;5011201;28;20112;-78
2024/03/30 01:12:49;;;;;;;4.80;2.75;;;9.50;99.90;;;8.31;83.71;99821.16;5022819;28;20061;-78
2024/03/30 01:15:15;;;;;;;8.40;3.17;;;9.50;99.90;;;8.29;84.41;99829.09;5025149;28;20037;-78
2024/03/30 01:17:50;;;;;;;6.05;2.55;;;9.50;99.90;;;8.30;84.51;99832.59;5011302;28;20435;-78
2024/03/30 01:20:19;;;;;;;5.20;3.40;;;9.50;99.90;;;8.30;84.65;99819.47;5020709;28;20038;-78
2024/03/30 01:22:50;;;;;;;9.32;4.82;;;9.50;99.90;;;8.30;84.86;99808.97;5020524;28;20044;-78
2024/03/30 01:25:17;;;;;;;10.77;4.07;;;9.40;99.90;;;8.29;84.97;99799.41;5020791;28;20492;-78
2024/03/30 01:27:43;;;;;;;9.38;3.85;;;9.40;99.90;;;8.25;84.89;99793.47;5033946;28;20036;-78
2024/03/30 01:30:09;;;;;;;8.90;3.63;;;9.40;99.90;;;8.22;85.08;99799.72;5035155;28;20105;-79
2024/03/30 01:32:37;;;;;;;13.07;3.88;;;9.40;99.90;;;8.19;85.48;99796.41;5019048;28;20133;-78
2024/03/30 01:35:07;;;;;;;6.47;3.13;;;9.40;99.90;;;8.15;84.96;99781.75;5011412;28;20080;-78
2024/03/30 01:37:33;;;;;;;6.95;3.63;;;9.30;99.90;;;8.11;85.48;99790.72;5034510;28;20041;-78
2024/03/30 01:39:59;;;;;;;6.70;2.90;;;9.30;99.90;;;8.06;84.97;99795.34;5028009;28;20522;-78
2024/03/30 01:42:32;;;;;;;10.30;4.63;;;9.20;99.90;;;8.01;85.53;99795.56;5019594;28;20399;-78
2024/03/30 01:44:58;;;;;;;7.80;3.10;;;9.20;99.90;;;7.95;85.66;99788.03;5019694;28;20026;-78
2024/03/30 01:47:27;;;;;;;5.82;2.95;;;9.10;99.90;;;7.92;85.02;99791.63;5003427;28;20033;-79
2024/03/30 01:50:00;;;;;;;5.25;3.10;;;9.10;99.90;;;7.90;85.74;99797.88;5027283;28;20025;-78
2024/03/30 01:52:31;;;;;;;7.15;2.97;;;9.10;99.90;;;7.90;85.86;99803.97;5027960;28;20065;-78
2024/03/30 01:54:58;;;;;;;7.07;2.90;;;9.10;99.90;;;7.90;86.68;99806.59;5004159;28;20092;-78
2024/03/30 01:57:31;;;;;;;7.43;2.80;;;9.10;99.90;;;7.90;87.28;99801.34;5003006;28;20029;-78
2024/03/30 01:59:57;;;;;;;8.25;2.55;;;9.10;99.90;;;7.89;86.86;99797.03;5019844;28;20052;-78
2024/03/30 02:02:24;;;;;;;4.15;2.75;;;9.10;99.90;;;7.89;87.22;99799.66;5017159;28;20121;-78
2024/03/30 02:04:51;;;;;;;5.18;2.50;;;9.10;99.90;;;7.89;86.92;99794.41;5022030;28;20048;-79
2024/03/30 02:07:24;;;;;;;5.35;2.28;;;9.00;99.90;;;7.89;87.55;99791.81;5035395;28;20061;-78
2024/03/30 02:09:52;;;;;;;4.05;2.58;;;9.10;99.90;;;7.88;87.04;99786.63;5033991;28;20042;-78
2024/03/30 02:12:18;;;;;;;6.80;2.65;;;9.10;99.90;;;7.87;87.35;99782.31;5025534;28;20091;-78
2024/03/30 02:14:44;;;;;;;5.72;2.85;;;9.00;99.90;;;7.85;88.02;99782.38;5021719;28;20026;-78
2024/03/30 02:17:10;;;;;;;7.18;2.95;;;9.00;99.90;;;7.86;88.05;99775.38;5026702;28;20026;-79
2024/03/30 02:19:44;;;;;;;5.22;2.67;;;9.00;99.90;;;7.87;88.02;99766.59;5016206;28;20041;-79
2024/03/30 02:22:10;;;;;;;3.92;2.47;;;9.00;99.90;;;7.85;88.19;99766.66;5010515;28;20025;-78
2024/03/30 02:24:36;;;;;;;3.83;2.60;;;9.00;99.90;;;7.86;88.82;99759.66;5033433;28;20044;-78
2024/03/30 02:27:11;;;;;;;7.70;2.70;;;9.00;99.90;;;7.86;88.94;99770.13;5027104;28;20037;-79
2024/03/30 02:29:38;;;;;;;7.35;2.97;;;9.00;99.90;;;7.85;88.89;99764.03;5022306;28;20083;-79
2024/03/30 02:32:06;;;;;;;3.35;2.42;;;9.00;99.90;;;7.85;88.96;99769.28;5009953;28;20033;-79
2024/03/30 02:34:34;;;;;;;4.35;2.88;;;9.00;99.90;;;7.85;88.86;99773.69;5009842;28;20381;-80
2024/03/30 02:37:00;;;;;;;6.95;3.00;;;9.00;99.90;;;7.85;89.44;99779.78;5025564;28;20574;-78
2024/03/30 02:39:26;;;;;;;8.80;3.00;;;9.00;99.90;;;7.88;89.34;99787.47;5027194;28;20042;-78
2024/03/30 02:41:52;;;;;;;4.60;2.83;;;9.10;99.90;;;7.91;89.40;99791.72;5026734;28;20042;-80
2024/03/30 02:44:18;;;;;;;7.38;2.83;;;9.10;99.90;;;7.92;89.25;99796.88;5026301;28;20033;-78
2024/03/30 02:46:43;;;;;;;14.02;3.38;;;9.10;99.90;;;7.93;89.57;99797.75;5018422;28;20120;-78
2024/03/30 02:49:21;;;;;;;13.05;3.20;;;9.10;99.90;;;7.94;88.49;99802.88;5026137;28;20101;-79
2024/03/30 02:51:47;;;;;;;15.85;4.00;;;9.10;99.90;;;7.92;88.62;99802.13;5018020;28;20026;-78
2024/03/30 02:54:20;;;;;;;17.20;4.05;;;9.10;99.90;;;7.87;88.33;99800.66;5018913;28;20141;-79
2024/03/30 02:56:46;;;;;;;9.32;3.17;;;9.00;99.90;;;7.79;87.76;99801.88;5032605;28;20056;-78
2024/03/30 02:59:11;;;;;;;5.05;3.00;;;8.90;99.90;;;7.72;88.01;99795.25;5031763;28;20120;-79
2024/03/30 03:01:37;;;;;;;10.63;3.50;;;8.90;99.90;;;7.70;88.61;99796.25;5032879;28;20034;-78
2024/03/30 03:04:04;;;;;;;11.68;4.00;;;8.90;99.90;;;7.71;89.34;99790.97;5025412;28;20034;-78
2024/03/30 03:06:34;;;;;;;9.70;3.63;;;8.90;99.90;;;7.73;89.22;99798.72;5017803;28;20082;-79
2024/03/30 03:09:00;;;;;;;8.50;3.22;;;8.90;99.90;;;7.75;89.24;99782.03;5019150;28;20480;-78
2024/03/30 03:11:26;;;;;;;6.68;3.40;;;9.00;99.90;;;7.78;89.72;99783.63;5016372;28;20110;-78
2024/03/30 03:13:52;;;;;;;6.47;3.63;;;9.00;99.90;;;7.80;90.63;99789.66;5032916;28;20038;-78
2024/03/30 03:16:18;;;;;;;7.60;3.60;;;9.00;99.90;;;7.81;90.41;99789.56;5020750;28;20025;-78
2024/03/30 03:18:44;;;;;;;8.20;3.90;;;9.00;99.90;;;7.81;90.72;99781.69;5035929;28;20034;-79
2024/03/30 03:21:17;;;;;;;5.22;3.17;;;9.00;99.90;;;7.84;91.47;99783.34;5024401;28;20522;-78
2024/03/30 03:23:43;;;;;;;7.07;3.25;;;9.00;99.90;;;7.83;91.34;99786.03;5033782;28;20393;-78
2024/03/30 03:26:09;;;;;;;8.15;3.33;;;9.00;99.90;;;7.83;91.54;99786.88;5035253;28;20090;-79
2024/03/30 03:28:34;;;;;;;22.60;6.85;;;9.00;99.90;;;7.82;91.63;99787.81;5025241;28;20022;-78
2024/03/30 03:31:00;;;;;;;9.23;3.83;;;9.00;99.90;;;7.85;91.39;99789.41;5019704;28;20518;-78
2024/03/30 03:33:31;;;;;;;7.35;3.40;;;9.00;99.90;;;7.86;91.96;99785.84;5026445;28;20029;-78
2024/03/30 03:35:57;;;;;;;5.78;3.22;;;9.00;99.90;;;7.87;92.14;99784.94;5014648;28;20512;-79
2024/03/30 03:38:23;;;;;;;8.85;3.45;;;9.00;99.90;;;7.88;92.00;99782.22;5032127;28;20057;-78
2024/03/30 03:40:49;;;;;;;5.78;3.30;;;9.00;99.90;;;7.88;92.09;99786.63;5033952;28;20403;-78
2024/03/30 03:43:15;;;;;;;8.30;3.58;;;9.00;99.90;;;7.87;92.29;99787.56;5009338;28;20034;-78
2024/03/30 03:45:48;;;;;;;7.75;3.53;;;9.00;99.90;;;7.86;92.39;99791.09;5026844;28;20491;-78
2024/03/30 03:48:14;;;;;;;4.97;3.42;;;9.00;99.90;;;7.85;92.50;99779.78;5019258;28;20030;-78
2024/03/30 03:50:41;;;;;;;5.32;3.10;;;9.00;99.90;;;7.83;92.29;99781.63;5026609;28;20101;-79
2024/03/30 03:53:08;;;;;;;8.68;3.65;;;9.00;99.90;;;7.80;92.20;99773.94;5017444;28;20121;-78
2024/03/30 03:55:39;;;;;;;6.28;3.22;;;9.00;99.90;;;7.78;92.50;99784.47;5005384;28;20165;-78
2024/03/30 03:58:05;;;;;;;10.07;4.05;;;9.00;99.90;;;7.75;92.57;99781.16;5029043;28;20434;-78
2024/03/30 04:00:31;;;;;;;8.40;4.03;;;8.90;99.90;;;7.73;92.45;99775.13;5014486;28;20124;-79
2024/03/30 04:02:57;;;;;;;5.10;3.60;;;8.90;99.90;;;7.69;92.41;99776.22;5029912;28;20029;-78
2024/03/30 04:05:24;;;;;;;4.78;3.10;;;8.90;99.90;;;7.66;92.67;99768.50;5028606;28;20106;-78
2024/03/30 04:07:56;;;;;;;7.85;3.90;;;8.80;99.90;;;7.60;92.78;99770.53;5023536;28;20024;-79
2024/03/30 04:10:23;;;;;;;9.60;3.78;;;8.80;99.90;;;7.56;92.29;99778.63;5014790;28;20064;-81
2024/03/30 04:12:49;;;;;;;12.50;4.30;;;8.70;99.90;;;7.51;92.65;99765.72;5029284;28;20045;-78
2024/03/30 04:15:15;;;;;;;5.88;3.83;;;8.70;99.90;;;7.47;92.56;99765.94;5024742;28;20112;-78
2024/03/30 04:17:49;;;;;;;6.90;4.07;;;8.70;99.90;;;7.46;93.33;99759.88;5029474;28;20037;-79
2024/03/30 04:20:15;;;;;;;8.82;4.22;;;8.70;99.90;;;7.45;93.66;99760.81;5021392;28;20044;-78
2024/03/30 04:22:41;;;;;;;8.18;3.55;;;8.70;99.90;;;7.45;94.12;99773.03;5008379;28;20045;-78
2024/03/30 04:25:08;;;;;;;9.23;3.88;;;8.60;99.90;;;7.44;94.80;99769.56;5033557;28;20025;-78
2024/03/30 04:27:41;;;;;;;8.52;3.92;;;8.60;99.90;;;7.42;94.15;99781.91;5036005;28;20084;-78
2024/03/30 04:30:10;;;;;;;6.40;4.35;;;8.60;99.90;;;7.38;94.75;99781.19;5023032;28;20018;-78
2024/03/30 04:32:36;;;;;;;9.23;4.07;;;8.60;99.90;;;7.35;94.34;99775.28;5010276;28;20034;-78
2024/03/30 04:35:06;;;;;;;13.63;4.28;;;8.60;99.90;;;7.33;94.81;99774.50;5030227;28;20034;-78
2024/03/30 04:37:32;;;;;;;7.10;3.88;;;8.50;99.90;;;7.30;94.82;99779.84;5018987;28;20028;-78
2024/03/30 04:39:58;;;;;;;11.05;4.65;;;8.50;99.90;;;7.28;94.99;99779.09;5028214;28;20036;-78
2024/03/30 04:42:24;;;;;;;9.48;4.40;;;8.50;99.90;;;7.27;95.39;99796.56;5028920;28;20041;-78
2024/03/30 04:44:50;;;;;;;9.70;4.38;;;8.50;99.90;;;7.28;95.40;99800.03;5022554;28;20117;-78
2024/03/30 04:47:15;;;;;;;7.05;4.68;;;8.50;99.90;;;7.29;95.21;99806.97;5027887;28;20037;-78
2024/03/30 04:49:50;;;;;;;8.82;4.45;;;8.50;99.90;;;7.29;95.97;99802.59;5017577;28;20079;-78
2024/03/30 04:52:16;;;;;;;9.93;4.32;;;8.50;99.90;;;7.31;95.72;99811.22;5013437;28;20034;-78
2024/03/30 04:54:42;;;;;;;10.98;4.93;;;8.50;99.90;;;7.33;96.04;99816.38;5035752;28;20105;-78
2024/03/30 04:57:08;;;;;;;10.93;5.05;;;8.50;99.90;;;7.35;96.54;99820.63;5009826;28;20133;-78
2024/03/30 04:59:40;;;;;;;11.32;4.88;;;8.60;99.90;;;7.39;96.34;99818.72;5025253;28;20029;-78
2024/03/30 05:02:06;;;;;;;10.15;4.68;;;8.60;99.90;;;7.40;96.63;99812.53;5028823;28;20045;-78
2024/03/30 05:04:32;;;;;;;7.80;4.50;;;8.60;99.90;;;7.40;97.21;99808.16;5028323;28;20037;-78
2024/03/30 05:06:58;;;;;;;9.07;4.47;;;8.60;99.90;;;7.42;97.34;99805.47;5017017;28;20116;-78
2024/03/30 05:09:23;;;;;;;11.57;4.70;;;8.70;99.90;;;7.45;97.64;99789.63;5013705;28;20522;-78
2024/03/30 05:11:56;;;;;;;9.57;3.88;;;8.70;99.90;;;7.51;97.52;99791.06;5011958;28;20125;-78
2024/03/30 05:14:22;;;;;;;8.43;4.10;;;8.70;99.90;;;7.53;97.91;99784.00;5016119;28;20496;-78
2024/03/30 05:16:48;;;;;;;13.07;4.63;;;8.70;99.90;;;7.53;97.61;99784.00;5021987;28;20243;-79
2024/03/30 05:22:05;;;;;;;7.65;4.22;;;8.70;99.90;;;7.54;96.59;99798.81;5027428;28;20454;-78
2024/03/30 05:24:31;;;;;;;9.07;4.03;;;8.70;99.90;;;7.57;97.11;99806.50;5024268;28;20038;-79
2024/03/30 05:26:59;;;;;;;7.55;4.28;;;8.80;99.90;;;7.63;97.60;99810.59;5036500;28;20440;-78
2024/03/30 05:29:30;;;;;;;7.97;4.20;;;8.80;99.90;;;7.69;97.69;99811.16;5028395;28;20021;-78
2024/03/30 05:31:55;;;;;;;11.77;4.35;;;8.90;99.90;;;7.76;98.61;99809.91;5021209;28;20030;-79
2024/03/30 05:34:21;;;;;;;8.30;4.07;;;9.00;99.90;;;7.85;99.01;99813.84;5011166;28;20132;-79
2024/03/30 05:36:47;;;;;;;7.97;3.97;;;9.00;99.90;;;7.94;99.15;99808.13;5035034;28;20112;-78
2024/03/30 05:39:13;;;;;;;6.50;3.95;;;9.10;99.90;;;8.01;99.67;99801.69;5029888;28;20570;-78
2024/03/30 05:41:39;;;;;;;7.68;4.10;;;9.20;99.90;;;8.12;99.95;99816.00;5027446;28;20125;-78
2024/03/30 05:44:10;;;;;;;12.80;3.97;;;9.30;99.90;;;8.17;99.58;99821.88;5019354;28;20055;-78
2024/03/30 05:46:36;;;;;;;4.90;3.75;;;9.30;99.90;;;8.23;100.00;99824.19;5029207;28;20034;-78
2024/03/30 05:49:02;;;;;;;9.30;3.70;;;9.40;99.90;;;8.31;100.00;99823.78;5021920;28;20606;-79
2024/03/30 05:51:27;;;;;;;5.97;3.63;;;9.50;99.90;;;8.41;100.00;99825.03;5020671;28;20123;-78
2024/03/30 05:53:53;;;;;;;8.02;3.40;;;9.60;99.90;;;8.46;100.00;99822.16;5027103;28;20056;-78
2024/03/30 05:56:19;;;;;;;8.95;3.47;;;9.60;99.90;;;8.52;100.00;99813.97;5020969;28;20121;-79
2024/03/30 05:58:53;;;;;;;5.55;3.15;;;9.70;99.90;;;8.59;100.00;99813.56;5012275;28;20120;-78
2024/03/30 06:01:19;;;;;;;4.90;3.28;;;9.70;99.90;;;8.68;100.00;99817.47;5026964;28;20025;-78
2024/03/30 06:03:46;;;;;;;7.25;3.53;;;9.80;99.90;;;8.77;100.00;99819.63;5027608;28;20499;-78
2024/03/30 06:06:11;;;;;;;4.05;3.15;;;9.90;99.90;;;8.90;100.00;99816.31;5033697;28;20116;-78
2024/03/30 06:11:09;;;;;;;7.03;3.20;;;10.20;99.90;;;9.22;100.00;99807.53;5058104;28;20045;-79
2024/03/30 06:13:35;;;;;;;6.97;3.30;;;10.30;99.90;;;9.36;100.00;99803.28;5027634;28;20483;-78
2024/03/30 06:16:02;;;;;;;5.97;2.88;;;10.50;99.90;;;9.48;100.00;99807.88;5064802;28;20029;-78
2024/03/30 06:18:28;;;;;;;9.35;3.10;;;10.50;99.90;;;9.59;100.00;99809.84;5029221;28;20384;-78
2024/03/30 06:20:59;;;;;;;4.07;2.90;;;10.70;99.90;;;9.71;99.12;99816.19;5028505;28;20032;-78
2024/03/30 06:23:25;;;;;;;5.03;3.08;;;10.80;99.90;;;9.82;98.78;99821.69;5041024;28;20037;-78
2024/03/30 06:25:50;;;;;;;4.53;3.00;;;10.90;99.90;;;9.91;98.46;99818.50;5028769;28;20033;-79
2024/03/30 06:28:16;;;;;;;3.55;2.65;;;11.00;99.90;;;10.00;97.32;99823.25;5023808;28;20029;-79
2024/03/30 06:30:42;;;;;;;4.75;2.60;;;11.10;99.90;;;10.08;97.28;99830.69;5040224;28;20017;-78
2024/03/30 06:33:09;;;;;;;5.55;3.03;;;11.10;99.90;;;10.17;96.54;99827.53;5024641;28;20416;-79
2024/03/30 06:35:38;;;;;;;7.28;4.13;;;11.20;99.90;;;10.28;96.05;99834.78;5041512;28;20021;-79
2024/03/30 06:38:04;;;;;;;7.65;4.25;;;11.30;99.90;;;10.40;95.16;99836.69;5028075;28;20029;-79
2024/03/30 06:46:01;;;;;;;4.07;2.17;;;11.80;99.90;;;10.93;93.85;99836.13;5045594;28;20095;-79
2024/03/30 06:48:27;;;;;;;4.97;2.38;;;12.00;99.90;;;11.12;92.28;99820.88;5027562;28;20024;-79
2024/03/30 06:50:53;;;;;;;3.92;2.55;;;12.10;99.90;;;11.29;91.90;99825.94;5040621;28;20438;-78
2024/03/30 06:53:18;;;;;;;5.85;2.50;;;12.30;99.90;;;11.49;91.10;99832.56;5041681;28;20448;-79
2024/03/30 06:55:44;;;;;;;5.07;2.47;;;12.50;99.90;;;11.72;90.08;99827.56;5041230;28;20033;-78
2024/03/30 06:58:10;;;;;;;5.38;2.25;;;12.70;99.90;;;11.97;89.11;99831.28;5014206;28;20028;-78
2024/03/30 07:00:42;;;;;;;3.67;2.30;;;12.90;99.90;;;12.19;88.31;99830.66;5030738;28;20045;-80
2024/03/30 07:03:08;;;;;;;4.05;2.30;;;13.10;99.90;;;12.42;86.65;99835.22;5041346;28;20076;-79
2024/03/30 07:05:34;;;;;;;3.83;2.20;;;13.30;99.90;;;12.63;85.50;99832.88;5020843;28;20033;-79
2024/03/30 07:08:01;;;;;;;4.50;2.22;;;13.60;99.90;;;12.78;84.60;99817.75;5006838;28;20060;-79
2024/03/30 07:10:27;;;;;;;3.58;2.20;;;13.70;99.90;;;12.89;84.49;99817.88;5025741;28;20028;-79
2024/03/30 07:13:00;;;;;;;4.93;2.25;;;13.80;99.90;;;12.96;83.38;99814.78;5040353;28;20503;-79
2024/03/30 07:15:25;;;;;;;3.45;2.00;;;13.90;99.90;;;13.00;82.39;99803.91;5023886;28;20104;-79
2024/03/30 07:17:53;;;;;;;8.35;3.17;;;13.90;99.90;;;13.03;81.73;99810.75;5025968;28;20082;-79
2024/03/30 07:20:19;;;;;;;8.35;3.47;;;14.00;99.90;;;13.09;81.46;99812.97;5030568;28;20163;-79
2024/03/30 07:22:47;;;;;;;10.23;3.70;;;14.10;99.90;;;13.15;80.84;99815.16;5032289;28;20029;-80
2024/03/30 07:25:13;;;;;;;9.68;3.60;;;14.10;99.90;;;13.16;79.75;99824.78;5028122;28;20487;-79
2024/03/30 07:27:39;;;;;;;10.35;3.80;;;14.20;99.90;;;13.22;79.79;99816.41;5041557;28;20033;-79
2024/03/30 07:30:06;;;;;;;12.90;4.07;;;14.20;99.90;;;13.25;79.75;99816.19;5030403;28;20040;-79
2024/03/30 07:32:32;;;;;;;9.88;3.90;;;14.30;99.90;;;13.30;79.46;99827.31;5045269;28;20029;-78
2024/03/30 07:34:58;;;;;;;15.65;4.05;;;14.30;99.90;;;13.32;78.87;99841.25;5030720;28;20020;-79
2024/03/30 07:37:25;;;;;;;9.98;3.58;;;14.30;99.90;;;13.28;77.64;99831.88;5017833;28;20594;-79
2024/03/30 07:39:56;;;;;;;8.45;3.30;;;14.30;99.90;;;13.33;77.97;99829.72;5037534;28;20117;-79
2024/03/30 07:42:22;;;;;;;7.88;3.33;;;14.30;99.90;;;13.28;77.32;99831.88;5007180;28;20494;-79
2024/03/30 07:44:48;;;;;;;8.32;3.58;;;14.30;99.90;;;13.34;77.31;99833.22;5012266;28;20040;-79
2024/03/30 07:47:13;;;;;;;11.10;4.72;;;14.40;99.90;;;13.43;77.24;99829.06;5022636;28;20021;-79
2024/03/30 07:49:39;;;;;;;13.38;5.85;;;14.50;99.90;;;13.58;77.55;99842.97;5023747;28;20033;-79
2024/03/30 07:52:13;;;;;;;16.70;6.80;;;14.60;99.90;;;13.78;77.33;99846.78;5021795;28;20030;-79
2024/03/30 07:54:39;;;;;;;24.38;7.20;;;14.70;99.90;;;13.91;76.44;99852.88;5028138;28;20051;-79
2024/03/30 07:57:05;;;;;;;23.88;9.45;;;14.90;99.90;;;14.04;75.68;99844.84;5029883;28;20040;-80
2024/03/30 07:59:31;;;;;;;27.73;9.38;;;15.00;99.90;;;14.11;75.17;99860.16;5011487;28;20036;-79
2024/03/30 08:02:02;;;;;;;21.92;9.13;;;15.00;99.90;;;14.16;74.73;99857.16;5008377;28;20048;-79
2024/03/30 08:04:28;;;;;;;27.15;8.70;;;15.10;99.90;;;14.27;74.65;99859.84;5024666;28;20400;-80
2024/03/30 08:06:55;;;;;;;22.50;8.27;;;15.20;99.90;;;14.45;74.78;99859.41;5024405;28;20035;-79
2024/03/30 08:09:22;;;;;;;19.23;7.35;;;15.40;99.90;;;14.60;74.16;99854.75;5030241;28;20018;-79
2024/03/30 08:11:48;;;;;;;14.38;5.50;;;15.50;99.90;;;14.66;73.13;99864.88;5010968;28;20116;-80
2024/03/30 08:14:22;;;;;;;11.60;5.32;;;15.60;99.90;;;14.70;72.48;99859.22;5026646;28;20529;-80
2024/03/30 08:16:48;;;;;;;11.70;4.25;;;15.60;99.90;;;14.66;71.97;99867.53;5025042;28;20034;-82
2024/03/30 08:19:15;;;;;;;9.75;4.13;;;15.70;99.90;;;14.71;71.72;99878.63;5027940;28;20035;-80
2024/03/30 08:21:46;;;;;;;10.00;4.13;;;15.80;99.90;;;14.87;72.39;99868.53;5007549;28;20637;-80
2024/03/30 08:24:12;;;;;;;8.52;3.25;;;15.90;99.90;;;15.06;71.97;99852.00;5028929;28;20041;-79
2024/03/30 08:26:38;;;;;;;7.97;3.38;;;16.00;99.90;;;15.21;71.74;99855.25;5011759;28;20652;-79
2024/03/30 08:29:03;;;;;;;9.80;3.63;;;16.20;99.90;;;15.38;72.09;99853.91;5026219;28;20097;-80
2024/03/30 08:31:39;;;;;;;9.15;3.60;;;16.30;99.90;;;15.55;71.26;99860.47;5044172;28;20502;-79
2024/03/30 08:34:05;;;;;;;11.00;4.10;;;16.50;99.90;;;15.66;71.20;99856.97;5042993;28;20503;-79
2024/03/30 08:36:30;;;;;;;10.07;4.05;;;16.60;99.90;;;15.78;70.17;99854.19;5023702;28;20036;-80
2024/03/30 08:38:56;;;;;;;10.35;4.78;;;16.70;99.90;;;15.81;68.69;99868.16;5024374;28;20522;-79
2024/03/30 08:41:22;;;;;;;7.60;4.18;;;16.80;99.90;;;15.93;69.04;99857.38;5043232;28;20159;-79
2024/03/30 08:43:48;;;;;;;6.03;2.95;;;16.90;99.90;;;16.06;69.21;99857.22;5010732;28;20032;-79
2024/03/30 08:46:19;;;;;;;6.43;3.20;;;17.00;99.90;;;16.17;68.90;99865.13;5026501;28;20655;-79
2024/03/30 08:48:44;;;;;;;8.77;3.58;;;17.10;99.90;;;16.22;68.44;99883.34;5033460;28;20028;-79
2024/03/30 08:51:10;;;;;;;6.53;3.08;;;17.20;99.90;;;16.37;67.94;99881.19;5024958;28;20040;-80
2024/03/30 08:53:36;;;;;;;7.00;3.22;;;17.20;99.90;;;16.32;66.86;99876.25;5032945;28;20025;-80
2024/03/30 08:56:03;;;;;;;9.43;2.80;;;17.20;99.90;;;16.30;65.77;99878.22;5030900;28;20380;-79
2024/03/30 08:58:35;;;;;;;9.75;3.90;;;17.30;99.90;;;16.39;66.68;99879.25;5043979;28;20116;-79
2024/03/30 09:01:01;;;;;;;7.82;3.80;;;17.40;99.90;;;16.61;67.67;99873.81;5031191;28;20068;-80
2024/03/30 09:03:27;;;;;;;9.40;3.58;;;17.50;99.90;;;16.67;65.40;99884.88;5026331;28;20067;-80
2024/03/30 09:05:56;;;;;;;10.02;3.88;;;17.60;99.90;;;16.79;65.33;99883.84;5044463;28;20065;-81
2024/03/30 09:08:30;;;;;;;10.35;4.32;;;17.70;99.90;;;16.81;64.89;99879.25;5026627;28;20029;-80
2024/03/30 09:10:59;;;;;;;8.95;4.22;;;17.70;99.90;;;16.83;64.51;99861.38;5005681;28;20060;-79
2024/03/30 09:13:34;;;;;;;9.65;3.63;;;17.80;99.90;;;16.86;63.82;99866.41;5024698;28;20030;-79
2024/03/30 09:16:03;;;;;;;10.55;3.30;;;17.80;99.90;;;16.83;63.24;99857.88;5032764;28;20032;-79
2024/03/30 09:18:54;;;;;;;6.03;2.90;;;17.70;99.90;;;16.81;62.87;99863.31;5045049;28;20025;-79
2024/03/30 09:21:20;;;;;;;7.10;2.65;;;17.80;99.90;;;16.96;63.43;99863.81;4965732;28;20042;-79
2024/03/30 09:23:45;;;;;;;9.85;2.65;;;18.00;99.90;;;17.11;62.96;99864.28;4930516;28;20070;-80
2024/03/30 09:26:39;;;;;;;;;;;;;;;;;;;;;
2024/03/30 09:29:06;;;;;;;9.90;3.17;;;18.20;99.90;;;17.43;62.92;99874.75;4951816;28;20053;-79
2024/03/30 09:31:38;;;;;;;8.55;3.13;;;18.40;99.90;;;17.65;62.63;99880.81;4967703;28;20035;-80
2024/03/30 09:34:07;;;;;;;8.85;3.60;;;18.50;99.90;;;17.68;61.23;99885.84;4937536;28;20098;-79
2024/03/30 09:36:33;;;;;;;6.53;3.40;;;18.60;99.90;;;17.76;61.55;99881.53;4929557;28;20066;-79
2024/03/30 09:39:05;;;;;;;8.75;3.45;;;18.70;99.90;;;17.90;61.96;99879.47;4936196;28;20061;-79
2024/03/30 09:42:02;;;;;;;7.93;3.55;;;18.80;99.90;;;18.01;61.47;99885.50;4952896;28;20516;-79
2024/03/30 09:44:31;;;;;;;7.38;3.17;;;18.90;99.90;;;18.05;61.31;99883.38;4964673;28;20074;-78
2024/03/30 09:47:11;;;;;;;7.63;3.20;;;18.90;99.90;;;18.04;61.35;99884.38;4945911;28;20066;-79
2024/03/30 09:49:46;;;;;;;10.23;3.70;;;19.00;99.90;;;18.07;60.96;99875.25;4946227;28;20038;-79
2024/03/30 09:52:14;;;;;;;9.52;3.47;;;19.00;99.90;;;18.19;60.99;99872.31;4963495;28;20043;-80
2024/03/30 09:54:43;;;;;;;6.93;3.10;;;19.10;99.90;;;18.24;60.20;99870.06;4948533;28;20639;-80
2024/03/30 09:57:16;;;;;;;9.55;3.45;;;19.20;99.90;;;18.36;60.45;99868.09;4953259;28;20034;-79
2024/03/30 10:03:47;;;;;;;6.53;3.47;;;19.30;99.90;;;18.41;58.87;99871.16;4971233;28;20043;-82
2024/03/30 10:07:13;;;;;;;8.07;3.17;;;;;;;18.40;59.58;99871.28;4947837;28;20023;-81
2024/03/30 10:13:55;;;;;;;7.05;3.22;;;19.20;99.90;;;18.33;59.23;99867.53;4960547;28;20046;-84
2024/03/30 10:16:47;;;;;;;8.27;3.10;;;19.20;99.90;;;18.33;59.23;99862.19;4968360;28;20505;-84
2024/03/30 10:26:27;;;;;;;6.43;2.85;;;;;;;18.53;58.79;99852.34;4783368;29;20044;-83
2024/03/30 10:29:18;;;;;;;8.93;3.45;;;;;;;18.66;59.05;99847.56;4779706;29;20130;-84
2024/03/30 10:32:16;;;;;;;10.30;3.03;;;19.50;99.90;;;18.63;57.88;99855.81;4801467;29;21046;-82
2024/03/30 10:35:43;;;;;;;10.63;3.20;;;19.50;99.90;;;18.67;58.80;99843.06;4770562;30;20043;-83
2024/03/30 10:38:18;;;;;;;;;;;;;;;;;;;;;
2024/03/30 10:48:29;;;;;;;;;;;;;;;;;;;;;
2024/03/30 10:55:26;;;;;;;8.10;3.42;;;;;;;19.06;58.29;99857.09;4688199;30;20060;-85
2024/03/30 10:58:26;;;;;;;9.07;3.47;;;;;;;19.27;58.20;99857.69;4705083;30;20214;-86
2024/03/30 11:05:29;;;;;;;;;;;;;;;;;;;;;
2024/03/30 11:12:26;;;;;;;;;;;;;;;;;;;;;
2024/03/30 11:15:46;;;;;;;8.48;3.20;;;20.30;99.90;;;19.47;57.01;99853.09;4736081;30;20048;-84
2024/03/30 11:37:35;;;;;;;9.38;3.38;;;20.30;99.90;;;19.39;57.21;99839.63;4892196;29;20060;-85
2024/03/30 11:41:15;;;;;;;7.00;2.83;;;20.40;99.90;;;19.61;58.29;99837.53;4874987;29;20411;-85
2024/03/30 11:53:06;;;;;;;7.50;3.00;;;20.60;99.90;;;19.86;56.54;99854.69;4875278;29;20044;-85
2024/03/30 12:04:46;;;;;;;6.60;2.65;;;20.50;99.90;;;19.66;57.46;99848.63;4866937;29;20048;-85
2024/03/30 12:33:07;;;;;;;13.40;3.50;;;;;;;20.23;56.25;99849.16;4728726;30;20100;-86
2024/03/30 12:39:27;;;;;;;10.98;3.10;;;;;;;20.21;55.71;99853.81;4719642;30;20067;-86